createdAt,value
2022-08-02T00:02:27.356Z,95651.63
2022-08-02T00:04:55.598Z,95657.84
2022-08-02T00:11:01.062Z,95660.91
2022-08-02T00:53:37.989Z,95666.28
2022-08-02T00:56:06.345Z,95666.88
2022-08-02T00:58:35.251Z,95664.56
2022-08-02T01:01:03.828Z,95677.41
2022-08-02T01:03:32.173Z,95676.91
2022-08-02T01:06:15.640Z,95670.47
2022-08-02T01:08:45.146Z,95672.66
2022-08-02T01:11:12.890Z,95672.44
2022-08-02T01:13:40.808Z,95672.88
2022-08-02T01:16:14.990Z,95682.34
2022-08-02T01:18:46.874Z,95680.91
2022-08-02T01:21:55.938Z,95675.09
2022-08-02T01:24:43.434Z,95676.28
2022-08-02T01:27:27.850Z,95669.81
2022-08-02T01:30:01.920Z,95676.41
2022-08-02T01:32:35.271Z,95671.72
2022-08-02T01:35:09.603Z,95673.53
2022-08-02T01:37:43.501Z,95676.56
2022-08-02T01:40:16.082Z,95672.94
2022-08-02T01:42:53.476Z,95668.47
2022-08-02T01:45:25.987Z,95660.16
2022-08-02T01:47:55.804Z,95662.59
2022-08-02T01:50:28.949Z,95667.63
2022-08-02T01:52:59.056Z,95662.81
2022-08-02T01:55:34.970Z,95663.66
2022-08-02T01:58:20.785Z,95663.88
2022-08-02T02:00:52.536Z,95659.63
2022-08-02T02:03:25.687Z,95665.53
2022-08-02T02:05:57.619Z,95658.84
2022-08-02T02:08:30.747Z,95661.03
2022-08-02T02:12:06.295Z,95658.50
2022-08-02T02:13:50.666Z,95650.81
2022-08-02T02:16:20.893Z,95650.38
2022-08-02T02:21:45.016Z,95643.41
2022-08-02T02:24:13.241Z,95646.22
2022-08-02T02:26:52.121Z,95649.56
2022-08-02T02:29:24.524Z,95643.56
2022-08-02T02:31:56.216Z,95647.16
2022-08-02T02:34:28.714Z,95647.97
2022-08-02T02:36:59.331Z,95649.25
2022-08-02T02:39:29.628Z,95647.00
2022-08-02T02:42:02.569Z,95644.00
2022-08-02T02:44:32.113Z,95650.44
2022-08-02T02:47:03.447Z,95645.34
2022-08-02T02:49:40.621Z,95650.63
2022-08-02T02:52:34.954Z,95647.97
2022-08-02T02:55:20.627Z,95655.19
2022-08-02T02:58:08.481Z,95658.16
2022-08-02T03:01:07.815Z,95654.66
2022-08-02T03:04:01.142Z,95660.34
2022-08-02T03:06:29.147Z,95666.00
2022-08-02T03:08:57.296Z,95663.97
2022-08-02T03:11:29.755Z,95674.53
2022-08-02T03:14:01.038Z,95667.81
2022-08-02T03:16:29.695Z,95671.56
2022-08-02T03:19:02.779Z,95673.19
2022-08-02T03:21:33.264Z,95675.91
2022-08-02T03:24:01.492Z,95669.75
2022-08-02T03:26:29.424Z,95667.94
2022-08-02T03:28:57.388Z,95674.50
2022-08-02T03:31:25.396Z,95670.44
2022-08-02T03:33:55.069Z,95668.19
2022-08-02T03:36:27.096Z,95671.72
2022-08-02T03:38:56.854Z,95666.06
2022-08-02T03:41:25.469Z,95670.84
2022-08-02T03:43:55.089Z,95677.94
2022-08-02T03:46:25.374Z,95666.72
2022-08-02T03:48:54.251Z,95665.09
2022-08-02T03:51:22.831Z,95663.53
2022-08-02T03:53:52.667Z,95669.75
2022-08-02T03:56:23.459Z,95669.00
2022-08-02T03:58:54.013Z,95667.84
2022-08-02T04:01:22.087Z,95677.50
2022-08-02T04:03:53.022Z,95669.16
2022-08-02T04:06:27.174Z,95674.94
2022-08-02T04:08:58.048Z,95677.59
2022-08-02T04:11:38.170Z,95679.78
2022-08-02T04:14:10.410Z,95687.03
2022-08-02T04:16:45.265Z,95686.38
2022-08-02T04:19:30.428Z,95686.06
2022-08-02T04:22:04.835Z,95684.78
2022-08-02T04:24:40.100Z,95683.78
2022-08-02T04:27:48.914Z,95683.03
2022-08-02T04:30:02.453Z,95685.91
2022-08-02T04:32:31.493Z,95693.41
2022-08-02T04:35:19.988Z,95695.66
2022-08-02T04:38:09.729Z,95699.88
2022-08-02T04:40:51.093Z,95695.50
2022-08-02T04:43:19.215Z,95713.88
2022-08-02T04:45:56.131Z,95718.13
2022-08-02T04:48:29.704Z,95723.00
2022-08-02T04:50:57.745Z,95725.88
2022-08-02T04:53:25.771Z,95732.22
2022-08-02T04:55:57.967Z,95727.94
2022-08-02T05:01:01.523Z,95731.19
2022-08-02T05:03:30.508Z,95737.50
2022-08-02T05:06:00.785Z,95724.34
2022-08-02T05:08:28.692Z,95719.03
2022-08-02T05:10:57.849Z,95717.22
2022-08-02T05:25:04.363Z,95717.50
2022-08-02T05:30:33.468Z,95715.03
2022-08-02T05:33:02.647Z,95717.94
2022-08-02T05:35:35.207Z,95715.31
2022-08-02T05:38:02.984Z,95716.47
2022-08-02T05:40:31.652Z,95720.84
2022-08-02T05:43:01.096Z,95726.84
2022-08-02T05:45:29.006Z,95725.44
2022-08-02T05:47:56.814Z,95728.00
2022-08-02T05:50:24.706Z,95727.09
2022-08-02T05:53:01.741Z,95738.63
2022-08-02T05:55:35.176Z,95737.56
2022-08-02T05:58:12.948Z,95739.28
2022-08-02T06:00:42.811Z,95740.31
2022-08-02T06:03:21.315Z,95739.53
2022-08-02T06:05:54.803Z,95739.72
2022-08-02T06:08:25.928Z,95740.91
2022-08-02T06:10:58.207Z,95741.44
2022-08-02T06:13:27.714Z,95738.16
2022-08-02T06:15:59.363Z,95743.44
2022-08-02T06:18:28.893Z,95748.72
2022-08-02T06:20:59.325Z,95750.97
2022-08-02T06:23:56.664Z,95746.47
2022-08-02T06:26:26.824Z,95749.94
2022-08-02T06:28:57.391Z,95748.88
2022-08-02T06:31:25.845Z,95750.78
2022-08-02T06:33:53.653Z,95745.44
2022-08-02T06:36:28.830Z,95748.03
2022-08-02T06:39:03.487Z,95743.38
2022-08-02T06:41:36.994Z,95744.16
2022-08-02T06:44:33.777Z,95749.50
2022-08-02T06:47:10.342Z,95749.66
2022-08-02T06:49:52.182Z,95739.63
2022-08-02T06:52:27.859Z,95751.44
2022-08-02T06:54:56.620Z,95746.66
2022-08-02T06:57:24.387Z,95747.31
2022-08-02T06:59:53.529Z,95733.19
2022-08-02T07:02:21.511Z,95740.38
2022-08-02T07:04:49.440Z,95742.69
2022-08-02T07:07:17.355Z,95737.13
2022-08-02T07:09:56.498Z,95739.75
2022-08-02T07:12:30.586Z,95733.44
2022-08-02T07:17:51.632Z,95739.66
2022-08-02T07:20:20.369Z,95746.06
2022-08-02T07:22:48.048Z,95735.75
2022-08-02T07:25:15.944Z,95746.16
2022-08-02T07:27:43.804Z,95744.41
2022-08-02T07:30:12.492Z,95740.03
2022-08-02T07:32:40.213Z,95739.09
2022-08-02T07:35:10.194Z,95734.34
2022-08-02T07:37:54.743Z,95733.88
2022-08-02T07:40:26.193Z,95731.88
2022-08-02T07:43:02.485Z,95729.50
2022-08-02T07:45:32.001Z,95729.13
2022-08-02T07:47:59.719Z,95729.88
2022-08-02T07:50:29.951Z,95718.81
2022-08-02T07:52:58.166Z,95714.06
2022-08-02T07:55:40.082Z,95726.97
2022-08-02T07:58:10.920Z,95716.66
2022-08-02T08:00:40.888Z,95727.31
2022-08-02T08:03:08.718Z,95724.47
2022-08-02T08:05:37.894Z,95726.38
2022-08-02T08:08:06.390Z,95722.38
2022-08-02T08:10:34.292Z,95721.09
2022-08-02T08:13:01.981Z,95717.66
2022-08-02T08:15:29.668Z,95716.53
2022-08-02T08:17:57.343Z,95713.16
2022-08-02T08:20:25.297Z,95720.56
2022-08-02T08:22:54.331Z,95717.19
2022-08-02T08:25:22.219Z,95717.19
2022-08-02T08:27:51.465Z,95717.84
2022-08-02T08:30:19.715Z,95711.72
2022-08-02T08:32:47.518Z,95726.53
2022-08-02T08:35:15.535Z,95715.28
2022-08-02T08:37:44.444Z,95715.66
2022-08-02T08:40:19.233Z,95716.06
2022-08-02T08:42:48.651Z,95723.00
2022-08-02T08:45:17.908Z,95714.53
2022-08-02T08:47:48.907Z,95713.28
2022-08-02T08:50:24.770Z,95713.16
2022-08-02T08:52:58.541Z,95718.78
2022-08-02T08:55:29.116Z,95711.03
2022-08-02T08:57:59.238Z,95710.88
2022-08-02T09:00:27.981Z,95705.59
2022-08-02T09:02:56.412Z,95710.94
2022-08-02T09:05:25.343Z,95718.31
2022-08-02T09:07:54.537Z,95706.63
2022-08-02T09:10:41.630Z,95717.19
2022-08-02T09:13:37.559Z,95710.56
2022-08-02T09:16:12.294Z,95712.03
2022-08-02T09:18:44.779Z,95718.72
2022-08-02T09:21:15.199Z,95722.25
2022-08-02T09:23:46.649Z,95711.06
2022-08-02T09:26:18.878Z,95720.34
2022-08-02T09:31:17.132Z,95722.06
2022-08-02T09:33:47.827Z,95723.72
2022-08-02T09:36:17.464Z,95719.41
2022-08-02T09:38:55.105Z,95724.22
2022-08-02T09:41:26.391Z,95730.75
2022-08-02T09:44:05.027Z,95729.22
2022-08-02T09:46:37.697Z,95720.44
2022-08-02T09:49:09.335Z,95724.53
2022-08-02T09:51:39.826Z,95729.97
2022-08-02T09:54:09.801Z,95719.81
2022-08-02T09:56:45.131Z,95722.53
2022-08-02T09:59:13.523Z,95720.13
2022-08-02T10:01:45.149Z,95715.97
2022-08-02T10:04:23.908Z,95712.34
2022-08-02T10:06:57.906Z,95722.16
2022-08-02T10:09:28.577Z,95718.34
2022-08-02T10:12:03.520Z,95710.66
2022-08-02T10:14:34.819Z,95704.16
2022-08-02T10:20:03.474Z,95707.56
2022-08-02T10:22:34.888Z,95709.88
2022-08-02T10:25:04.720Z,95712.44
2022-08-02T10:27:55.476Z,95707.75
2022-08-02T10:30:25.988Z,95722.41
2022-08-02T10:32:56.471Z,95711.78
2022-08-02T10:35:26.625Z,95711.94
2022-08-02T10:37:58.232Z,95706.31
2022-08-02T10:40:27.224Z,95704.81
2022-08-02T10:43:01.018Z,95699.78
2022-08-02T10:45:29.443Z,95696.16
2022-08-02T10:48:06.051Z,95696.91
2022-08-02T10:50:54.382Z,95692.47
2022-08-02T10:53:30.471Z,95693.09
2022-08-02T10:56:00.384Z,95688.16
2022-08-02T10:58:32.283Z,95691.22
2022-08-02T11:01:04.229Z,95688.75
2022-08-02T11:03:41.059Z,95681.22
2022-08-02T11:06:25.138Z,95683.69
2022-08-02T11:09:32.449Z,95676.81
2022-08-02T11:12:03.318Z,95677.84
2022-08-02T11:14:33.934Z,95672.91
2022-08-02T11:17:13.111Z,95672.69
2022-08-02T11:20:17.944Z,95660.19
2022-08-02T11:22:47.023Z,95666.34
2022-08-02T11:26:02.746Z,95660.56
2022-08-02T11:28:25.907Z,95654.00
2022-08-02T11:31:03.083Z,95655.88
2022-08-02T11:33:34.612Z,95655.50
2022-08-02T11:36:04.443Z,95656.28
2022-08-02T11:38:32.197Z,95657.75
2022-08-02T11:41:06.160Z,95657.56
2022-08-02T11:43:38.569Z,95641.19
2022-08-02T11:46:14.111Z,95648.94
2022-08-02T11:48:44.060Z,95648.34
2022-08-02T11:51:14.042Z,95643.19
2022-08-02T11:53:47.166Z,95651.59
2022-08-02T11:56:24.912Z,95650.97
2022-08-02T11:59:03.923Z,95650.81
2022-08-02T12:01:36.163Z,95646.72
2022-08-02T12:04:12.865Z,95653.25
2022-08-02T12:06:40.782Z,95645.31
2022-08-02T12:09:18.057Z,95657.97
2022-08-02T12:11:49.855Z,95658.56
2022-08-02T12:14:17.806Z,95656.97
2022-08-02T12:17:04.934Z,95649.44
2022-08-02T12:19:32.756Z,95649.28
2022-08-02T12:22:12.700Z,95655.56
2022-08-02T12:24:43.527Z,95653.28
2022-08-02T12:27:11.294Z,95652.53
2022-08-02T12:29:55.954Z,95644.53
2022-08-02T12:32:28.238Z,95640.84
2022-08-02T12:35:03.736Z,95640.69
2022-08-02T12:37:31.740Z,95641.09
2022-08-02T12:39:59.752Z,95646.63
2022-08-02T12:42:27.479Z,95639.66
2022-08-02T12:44:58.593Z,95638.03
2022-08-02T12:47:31.174Z,95635.13
2022-08-02T12:50:13.979Z,95632.28
2022-08-02T12:52:41.769Z,95631.88
2022-08-02T12:55:19.754Z,95622.88
2022-08-02T12:57:59.363Z,95625.06
2022-08-02T13:00:29.766Z,95625.28
2022-08-02T13:02:59.920Z,95623.28
2022-08-02T13:05:30.072Z,95614.88
2022-08-02T13:08:18.210Z,95614.91
2022-08-02T13:10:46.152Z,95615.03
2022-08-02T13:13:13.954Z,95611.19
2022-08-02T13:15:49.995Z,95608.56
2022-08-02T13:18:19.992Z,95605.66
2022-08-02T13:20:47.775Z,95607.72
2022-08-02T13:23:21.847Z,95609.78
2022-08-02T13:25:52.445Z,95605.25
2022-08-02T13:28:20.778Z,95601.88
2022-08-02T13:30:48.527Z,95595.34
2022-08-02T13:33:17.248Z,95598.91
2022-08-02T13:35:47.485Z,95588.47
2022-08-02T13:38:15.425Z,95591.16
2022-08-02T13:41:04.415Z,95585.66
2022-08-02T13:43:53.413Z,95589.13
2022-08-02T13:46:29.177Z,95581.97
2022-08-02T13:48:57.492Z,95585.44
2022-08-02T13:51:26.573Z,95576.19
2022-08-02T13:53:54.285Z,95574.94
2022-08-02T13:56:33.924Z,95568.72
2022-08-02T13:59:55.283Z,95569.50
2022-08-02T14:01:51.631Z,95573.59
2022-08-02T14:04:19.322Z,95564.56
2022-08-02T14:06:48.396Z,95565.56
2022-08-02T14:09:17.097Z,95565.25
2022-08-02T14:11:45.279Z,95558.38
2022-08-02T14:14:16.603Z,95560.97
2022-08-02T14:16:44.861Z,95568.81
2022-08-02T14:19:16.039Z,95568.13
2022-08-02T14:21:46.556Z,95568.38
2022-08-02T14:24:17.581Z,95555.94
2022-08-02T14:26:45.749Z,95560.09
2022-08-02T14:29:14.024Z,95552.91
2022-08-02T14:31:44.721Z,95551.00
2022-08-02T14:34:13.257Z,95554.47
2022-08-02T14:36:41.029Z,95543.47
2022-08-02T14:39:08.792Z,95545.91
2022-08-02T14:41:58.972Z,95538.66
2022-08-02T14:44:25.761Z,95542.94
2022-08-02T14:46:53.603Z,95535.53
2022-08-02T14:49:25.748Z,95540.75
2022-08-02T14:51:54.844Z,95546.06
2022-08-02T14:54:30.127Z,95546.16
2022-08-02T14:57:01.929Z,95543.28
2022-08-02T14:59:30.911Z,95545.34
2022-08-02T15:01:59.331Z,95546.56
2022-08-02T15:04:27.759Z,95546.03
2022-08-02T15:06:55.730Z,95546.53
2022-08-02T15:09:23.623Z,95554.13
2022-08-02T15:11:51.278Z,95557.63
2022-08-02T15:14:26.004Z,95551.03
2022-08-02T15:16:57.013Z,95548.31
2022-08-02T15:19:25.856Z,95551.84
2022-08-02T15:22:14.328Z,95550.31
2022-08-02T15:24:45.096Z,95554.72
2022-08-02T15:27:13.921Z,95549.06
2022-08-02T15:29:44.420Z,95558.00
2022-08-02T15:32:12.687Z,95545.47
2022-08-02T15:34:41.057Z,95548.25
2022-08-02T15:37:08.791Z,95545.31
2022-08-02T15:39:37.043Z,95552.72
2022-08-02T15:42:05.379Z,95543.63
2022-08-02T15:44:33.112Z,95539.88
2022-08-02T15:47:02.266Z,95546.63
2022-08-02T15:49:30.062Z,95542.22
2022-08-02T15:51:57.803Z,95547.72
2022-08-02T15:54:25.615Z,95550.66
2022-08-02T15:56:53.398Z,95548.09
2022-08-02T15:59:21.119Z,95547.09
2022-08-02T16:01:49.635Z,95550.78
2022-08-02T16:10:05.076Z,95547.09
2022-08-02T16:12:33.063Z,95546.88
2022-08-02T16:15:00.919Z,95545.50
2022-08-02T16:17:53.984Z,95549.53
2022-08-02T16:20:19.969Z,95544.22
2022-08-02T16:22:48.721Z,95534.97
2022-08-02T16:25:17.262Z,95539.75
2022-08-02T16:28:06.476Z,95534.38
2022-08-02T16:30:33.108Z,95532.25
2022-08-02T16:33:00.796Z,95529.56
2022-08-02T16:35:30.121Z,95521.97
2022-08-02T16:37:57.819Z,95520.19
2022-08-02T16:40:25.544Z,95521.00
2022-08-02T16:42:53.307Z,95519.88
2022-08-02T16:45:22.564Z,95521.56
2022-08-02T16:47:56.017Z,95511.81
2022-08-02T16:50:27.263Z,95525.09
2022-08-02T16:52:58.752Z,95518.25
2022-08-02T16:55:29.335Z,95519.41
2022-08-02T16:57:58.639Z,95523.44
2022-08-02T17:00:28.765Z,95519.31
2022-08-02T17:02:59.551Z,95522.56
2022-08-02T17:05:29.769Z,95525.06
2022-08-02T17:08:17.254Z,95530.00
2022-08-02T17:10:45.590Z,95536.75
2022-08-02T17:13:13.673Z,95531.59
2022-08-02T17:16:07.575Z,95530.78
2022-08-02T17:18:30.222Z,95525.06
2022-08-02T17:20:58.086Z,95523.69
2022-08-02T17:24:04.537Z,95536.66
2022-08-02T17:26:14.963Z,95526.78
2022-08-02T17:29:07.323Z,95520.16
2022-08-02T17:31:37.325Z,95528.44
2022-08-02T17:34:11.483Z,95524.00
2022-08-02T17:36:39.368Z,95527.94
2022-08-02T17:39:08.644Z,95528.31
2022-08-02T17:41:39.057Z,95526.69
2022-08-02T17:44:37.216Z,95525.84
2022-08-02T17:47:06.428Z,95531.66
2022-08-02T17:49:38.274Z,95526.31
2022-08-02T17:52:49.395Z,95535.78
2022-08-02T17:55:03.517Z,95534.84
2022-08-02T17:57:55.555Z,95533.09
2022-08-02T18:00:20.053Z,95538.47
2022-08-02T18:02:52.908Z,95536.00
2022-08-02T18:05:23.876Z,95533.56
2022-08-02T18:08:07.438Z,95534.47
2022-08-02T18:10:36.704Z,95537.44
2022-08-02T18:13:05.276Z,95534.91
2022-08-02T18:15:33.463Z,95537.22
2022-08-02T18:18:01.250Z,95531.97
2022-08-02T18:20:28.981Z,95535.97
2022-08-02T18:22:58.670Z,95530.84
2022-08-02T18:25:37.059Z,95537.66
2022-08-02T18:28:15.335Z,95529.81
2022-08-02T18:30:43.366Z,95536.28
2022-08-02T18:33:57.414Z,95530.81
2022-08-02T18:35:58.813Z,95536.50
2022-08-02T18:38:28.355Z,95536.81
2022-08-02T18:40:58.680Z,95538.41
2022-08-02T18:43:29.485Z,95548.06
2022-08-02T18:46:05.884Z,95544.25
2022-08-02T18:48:44.173Z,95549.78
2022-08-02T18:51:14.848Z,95548.94
2022-08-02T18:53:43.110Z,95555.28
2022-08-02T18:56:20.158Z,95554.78
2022-08-02T18:58:54.449Z,95557.44
2022-08-02T19:01:31.870Z,95548.47
2022-08-02T19:04:02.151Z,95548.81
2022-08-02T19:06:30.533Z,95557.88
2022-08-02T19:09:06.067Z,95556.81
2022-08-02T19:11:41.491Z,95556.22
2022-08-02T19:14:24.034Z,95558.00
2022-08-02T19:16:57.322Z,95555.59
2022-08-02T19:19:29.055Z,95559.09
2022-08-02T19:22:17.276Z,95563.00
2022-08-02T19:24:46.343Z,95569.22
2022-08-02T19:27:15.092Z,95555.13
2022-08-02T19:29:50.751Z,95563.53
2022-08-02T19:32:42.457Z,95564.97
2022-08-02T19:35:19.153Z,95568.91
2022-08-02T19:38:05.708Z,95564.97
2022-08-02T19:40:33.950Z,95577.03
2022-08-02T19:44:24.050Z,95574.91
2022-08-02T19:45:51.684Z,95577.63
2022-08-02T19:48:23.826Z,95572.81
2022-08-02T19:50:56.070Z,95576.13
2022-08-02T19:53:28.590Z,95582.56
2022-08-02T19:56:01.435Z,95585.31
2022-08-02T19:58:30.559Z,95584.72
2022-08-02T20:01:00.160Z,95581.88
2022-08-02T20:03:52.479Z,95586.44
2022-08-02T20:06:17.858Z,95586.38
2022-08-02T20:08:53.196Z,95586.59
2022-08-02T20:11:35.131Z,95579.38
2022-08-02T20:14:04.574Z,95579.53
2022-08-02T20:16:34.442Z,95583.72
2022-08-02T20:19:02.866Z,95587.69
2022-08-02T20:21:36.677Z,95583.50
2022-08-02T20:24:06.166Z,95582.63
2022-08-02T20:26:35.152Z,95585.25
2022-08-02T20:29:03.838Z,95583.47
2022-08-02T20:31:33.150Z,95583.69
2022-08-02T20:34:01.179Z,95582.75
2022-08-02T20:36:29.639Z,95580.97
2022-08-02T20:38:57.395Z,95578.44
2022-08-02T20:41:37.307Z,95579.44
2022-08-02T20:44:15.478Z,95579.03
2022-08-02T20:46:59.459Z,95569.41
2022-08-02T20:49:41.052Z,95577.44
2022-08-02T20:52:23.357Z,95577.25
2022-08-02T20:54:52.621Z,95577.09
2022-08-02T20:57:20.396Z,95574.03
2022-08-02T21:00:09.140Z,95576.97
2022-08-02T21:02:38.250Z,95574.72
2022-08-02T21:05:17.403Z,95574.25
2022-08-02T21:07:47.761Z,95570.81
2022-08-02T21:10:23.919Z,95569.75
2022-08-02T21:12:51.997Z,95579.66
2022-08-02T21:15:19.808Z,95576.72
2022-08-02T21:17:51.945Z,95567.16
2022-08-02T21:20:32.254Z,95565.56
2022-08-02T21:23:00.324Z,95574.56
2022-08-02T21:25:50.760Z,95563.75
2022-08-02T21:28:17.381Z,95561.84
2022-08-02T21:30:45.989Z,95555.72
2022-08-02T21:33:17.785Z,95563.09
2022-08-02T21:35:52.181Z,95557.41
2022-08-02T21:38:35.446Z,95562.13
2022-08-02T21:41:06.930Z,95551.06
2022-08-02T21:43:40.370Z,95552.44
2022-08-02T21:46:11.651Z,95551.00
2022-08-02T21:48:43.706Z,95554.09
2022-08-02T21:51:15.731Z,95553.13
2022-08-02T21:53:43.863Z,95556.44
2022-08-02T21:56:31.540Z,95558.25
2022-08-02T21:58:59.996Z,95551.69
2022-08-02T22:01:28.445Z,95548.19
2022-08-02T22:04:00.151Z,95552.06
2022-08-02T22:06:27.920Z,95551.66
2022-08-02T22:08:56.437Z,95549.63
2022-08-02T22:11:24.158Z,95548.56
2022-08-02T22:13:53.789Z,95552.03
2022-08-02T22:16:22.811Z,95554.72
2022-08-02T22:18:52.535Z,95554.31
2022-08-02T22:21:22.838Z,95549.41
2022-08-02T22:23:51.289Z,95554.28
2022-08-02T22:26:19.751Z,95558.63
2022-08-02T22:28:51.070Z,95563.53
2022-08-02T22:31:41.379Z,95563.69
2022-08-02T22:34:11.533Z,95567.78
2022-08-02T22:36:56.235Z,95560.44
2022-08-02T22:39:23.924Z,95568.25
2022-08-02T22:42:06.241Z,95569.50
2022-08-02T22:44:35.288Z,95569.31
2022-08-02T22:47:07.103Z,95569.94
2022-08-02T22:49:51.945Z,95571.78
2022-08-02T22:52:24.135Z,95573.19
2022-08-02T22:54:51.860Z,95571.78
2022-08-02T22:57:30.086Z,95584.03
2022-08-02T22:59:59.425Z,95576.03
2022-08-02T23:02:27.488Z,95578.91
2022-08-02T23:04:55.495Z,95576.84
2022-08-02T23:07:25.196Z,95581.53
2022-08-02T23:09:53.762Z,95571.50
2022-08-02T23:12:21.490Z,95575.78
2022-08-02T23:18:02.552Z,95578.28
2022-08-02T23:20:30.831Z,95570.31
2022-08-02T23:23:00.003Z,95567.84
2022-08-02T23:25:29.013Z,95575.22
2022-08-02T23:27:56.704Z,95575.66
2022-08-02T23:30:24.384Z,95569.72
2022-08-02T23:32:52.116Z,95573.81
2022-08-02T23:35:19.839Z,95571.78
2022-08-02T23:38:00.489Z,95577.31
2022-08-02T23:40:40.285Z,95574.84
2022-08-02T23:43:14.536Z,95574.41
2022-08-02T23:45:44.091Z,95579.72
2022-08-02T23:48:11.769Z,95576.25
2022-08-02T23:50:39.536Z,95575.84
2022-08-02T23:53:07.270Z,95581.38
2022-08-02T23:55:36.313Z,95571.38
2022-08-02T23:58:04.050Z,95575.22
